Time;durP1;ratioP1;P1;durP2;ratioP2;P2;SDS_P1;SDS_P2;PMS_P1;PMS_P2;Temp;Humidity;BMP_temperature;BMP_pressure;BME280_temperature;BME280_humidity;BME280_pressure;Samples;Min_cycle;Max_cycle;Signal;HPM_P1;HPM_P2
2023/11/20 09:31:59;;;;;;;6.28;4.50;;;;;;;;;;5696694;23;20153;-85
2023/11/20 10:34:06;;;;;;;4.20;3.35;;;;;;;;;;5211301;23;20058;-92
2023/11/20 10:36:33;;;;;;;4.97;3.30;;;;;;;;;;4983341;28;20038;-94
2023/11/20 10:39:00;;;;;;;4.05;3.13;;;;;;;;;;4983369;28;20034;-95
2023/11/20 10:41:29;;;;;;;4.65;3.50;;;;;;;;;;4983309;28;20034;-95
2023/11/20 10:43:55;;;;;;;5.15;3.45;;;;;;;;;;4985102;28;20096;-95
2023/11/20 10:54:56;;;;;;;5.18;3.40;;;;;;;;;;5112145;23;20275;-95
2023/11/20 10:57:23;;;;;;;4.78;3.35;;;;;;;;;;4974374;28;20042;-96
2023/11/20 11:00:07;;;;;;;3.67;3.25;;;;;;;;;;5003103;23;20101;-94
2023/11/20 11:02:38;;;;;;;4.30;3.20;;;;;;;;;;4997382;28;20018;-95
2023/11/20 11:05:08;;;;;;;6.68;3.85;;;;;;;;;;4993865;28;20030;-96
2023/11/20 11:07:46;;;;;;;4.28;3.80;;;;;;;;;;5014818;28;20026;-96
2023/11/20 11:10:14;;;;;;;4.15;3.72;;;;;;;;;;5036733;23;20069;-96
2023/11/20 11:13:01;;;;;;;6.00;3.70;;;;;;;;;;4996486;23;20045;-96
2023/11/20 11:15:31;;;;;;;3.92;3.58;;;;;;;;;;5071359;23;20091;-95
2023/11/20 11:23:51;;;;;;;5.35;4.10;;;;;;;;;;5156486;23;20059;-91
2023/11/20 11:30:07;;;;;;;6.60;4.78;;;;;;;;;;4907280;29;20124;-90
2023/11/20 11:32:45;;;;;;;4.60;4.03;;;;;;;;;;4890927;29;20081;-93
2023/11/20 11:35:55;;;;;;;4.57;4.18;;;;;;;;;;4880513;29;20524;-89
2023/11/20 11:38:33;;;;;;;5.13;4.22;;;;;;;;;;4842273;29;20128;-90
2023/11/20 11:41:26;;;;;;;5.20;4.05;;;;;;;;;;4875905;29;20037;-88
2023/11/20 11:43:52;;;;;;;5.10;4.07;;;;;;;;;;4879550;29;20148;-90
2023/11/20 11:46:18;;;;;;;9.40;4.57;;;;;;;;;;4878739;29;20033;-88
2023/11/20 11:48:44;;;;;;;4.43;4.03;;;;;;;;;;4879591;29;20037;-88
2023/11/20 11:51:20;;;;;;;5.80;4.40;;;;;;;;;;4879318;29;20037;-89
2023/11/20 11:54:14;;;;;;;6.00;5.30;;;;;;;;;;4879785;29;20041;-91
2023/11/20 11:56:49;;;;;;;6.30;5.55;;;;;;;;;;4880228;29;20036;-88
2023/11/20 11:59:40;;;;;;;6.20;4.55;;;;;;;;;;4880710;29;20029;-94
2023/11/20 12:02:08;;;;;;;5.57;4.95;;;;;;;;;;4879901;29;20041;-93
2023/11/20 12:05:13;;;;;;;5.78;4.75;;;;;;;;;;4880699;29;20535;-88
2023/11/20 12:07:39;;;;;;;7.82;4.82;;;;;;;;;;4947042;29;20066;-90
2023/11/20 12:10:10;;;;;;;4.80;4.30;;;;;;;;;;4939814;29;20034;-91
2023/11/20 12:12:54;;;;;;;6.93;4.80;;;;;;;;;;4956824;29;20019;-87
2023/11/20 12:15:59;;;;;;;5.47;4.97;;;;;;;;;;4957065;29;20034;-89
2023/11/20 12:18:29;;;;;;;6.78;5.10;;;;;;;;;;4956863;29;20106;-90
2023/11/20 12:21:01;;;;;;;7.10;4.97;;;;;;;;;;4939026;29;20031;-88
2023/11/20 12:23:45;;;;;;;5.13;4.63;;;;;;;;;;4956535;29;20043;-87
2023/11/20 12:26:18;;;;;;;4.72;3.95;;;;;;;;;;4956686;29;20559;-86
2023/11/20 12:28:47;;;;;;;7.22;4.82;;;;;;;;;;4957609;29;20470;-88
2023/11/20 12:31:13;;;;;;;5.07;4.53;;;;;;;;;;4951253;23;20083;-92
2023/11/20 12:33:42;;;;;;;7.43;4.95;;;;;;;;;;4955230;29;20113;-90
2023/11/20 12:36:35;;;;;;;10.35;6.32;;;;;;;;;;4955632;29;20401;-89
2023/11/20 12:39:06;;;;;;;6.63;5.93;;;;;;;;;;4956382;28;20031;-87
2023/11/20 12:41:34;;;;;;;6.13;5.07;;;;;;;;;;4960806;23;20067;-88
2023/11/20 12:44:00;;;;;;;5.20;4.70;;;;;;;;;;4936419;29;20566;-91
2023/11/20 12:46:28;;;;;;;6.15;4.65;;;;;;;;;;4937317;29;20058;-92
2023/11/20 12:48:54;;;;;;;5.85;5.00;;;;;;;;;;4936209;29;20106;-91
2023/11/20 18:12:31;;;;;;;18.15;12.00;;;;;;;;;;4996613;28;20050;-90
2023/11/20 18:14:57;;;;;;;14.10;10.40;;;;;;;;;;4998814;28;20049;-86
2023/11/20 18:17:24;;;;;;;13.63;8.70;;;;;;;;;;5016636;28;20507;-85
2023/11/20 18:19:50;;;;;;;9.20;6.95;;;;;;;;;;4999012;28;20037;-86
2023/11/20 18:22:16;;;;;;;10.90;6.80;;;;;;;;;;5016695;28;20392;-87
2023/11/20 18:24:42;;;;;;;9.93;7.25;;;;;;;;;;5016553;28;20482;-87
2023/11/20 18:27:08;;;;;;;9.07;6.35;;;;;;;;;;5016610;28;20014;-86
2023/11/20 18:29:33;;;;;;;9.20;6.70;;;;;;;;;;5016309;28;20072;-86
2023/11/20 18:31:59;;;;;;;8.73;6.15;;;;;;;;;;5016497;28;20018;-87
2023/11/20 18:34:24;;;;;;;9.20;6.88;;;;;;;;;;5019980;28;20032;-87
2023/11/20 18:36:51;;;;;;;11.00;7.28;;;;;;;;;;5019416;28;20022;-87
2023/11/20 18:39:16;;;;;;;11.95;8.65;;;;;;;;;;4999942;28;20028;-86
2023/11/20 18:41:42;;;;;;;14.82;9.35;;;;;;;;;;5001577;28;20074;-87
2023/11/20 18:44:08;;;;;;;13.13;9.07;;;;;;;;;;4998556;28;20033;-87
2023/11/20 18:46:33;;;;;;;10.40;8.63;;;;;;;;;;4998463;28;20026;-87
2023/11/20 18:48:59;;;;;;;10.88;7.97;;;;;;;;;;4998448;28;20030;-87
2023/11/20 18:51:24;;;;;;;11.63;8.95;;;;;;;;;;4999165;28;20030;-86
2023/11/20 18:53:50;;;;;;;15.38;11.13;;;;;;;;;;4998481;28;20404;-84
2023/11/20 18:56:16;;;;;;;19.08;12.50;;;;;;;;;;5015946;28;20053;-87
2023/11/20 18:58:43;;;;;;;16.33;11.45;;;;;;;;;;5016011;28;20105;-87
2023/11/20 19:01:10;;;;;;;13.48;9.13;;;;;;;;;;5015890;28;20115;-86
2023/11/20 19:03:37;;;;;;;10.60;8.45;;;;;;;;;;4998113;28;20036;-91
2023/11/20 19:06:03;;;;;;;13.77;10.73;;;;;;;;;;5015974;28;20022;-87
2023/11/20 19:08:28;;;;;;;11.13;9.38;;;;;;;;;;4998261;28;20038;-87
2023/11/20 19:10:55;;;;;;;14.50;10.80;;;;;;;;;;4998142;28;20025;-86
2023/11/20 19:13:20;;;;;;;13.93;10.65;;;;;;;;;;4997935;28;20046;-87
2023/11/20 19:15:46;;;;;;;13.57;10.10;;;;;;;;;;4997710;28;20036;-87
2023/11/20 19:18:14;;;;;;;10.95;8.45;;;;;;;;;;4997804;28;20117;-88
2023/11/20 19:20:41;;;;;;;11.70;7.95;;;;;;;;;;4997765;28;20057;-87
2023/11/20 19:23:07;;;;;;;12.93;8.95;;;;;;;;;;5015301;28;20036;-87
2023/11/20 19:25:33;;;;;;;14.93;10.52;;;;;;;;;;5015468;28;20112;-86
2023/11/20 19:27:59;;;;;;;12.70;10.27;;;;;;;;;;5015298;28;20057;-86
2023/11/20 19:30:25;;;;;;;13.95;9.18;;;;;;;;;;4997755;28;20026;-85
2023/11/20 19:32:51;;;;;;;15.95;11.52;;;;;;;;;;4997590;28;20026;-86
2023/11/20 19:35:17;;;;;;;17.75;11.55;;;;;;;;;;5015285;28;20113;-85
2023/11/20 19:37:43;;;;;;;17.23;11.77;;;;;;;;;;5015164;28;20033;-86
2023/11/20 19:40:13;;;;;;;15.82;11.57;;;;;;;;;;4997477;28;20066;-85
2023/11/20 19:42:41;;;;;;;18.17;11.57;;;;;;;;;;4997166;28;20436;-85
2023/11/20 19:45:08;;;;;;;15.75;11.20;;;;;;;;;;5014892;28;20459;-84
2023/11/20 19:47:34;;;;;;;15.80;10.85;;;;;;;;;;5015016;28;20017;-83
2023/11/20 19:49:59;;;;;;;13.05;10.55;;;;;;;;;;5014988;28;20106;-85
2023/11/20 19:52:25;;;;;;;22.20;12.45;;;;;;;;;;4997345;28;20105;-85
2023/11/20 19:54:53;;;;;;;17.00;12.27;;;;;;;;;;5014731;28;20080;-85
2023/11/20 19:57:20;;;;;;;14.32;10.10;;;;;;;;;;5015072;28;20380;-86
2023/11/20 19:59:46;;;;;;;15.63;9.70;;;;;;;;;;5014467;28;20029;-86
2023/11/20 20:02:11;;;;;;;13.52;9.93;;;;;;;;;;5014822;28;20092;-87
2023/11/20 20:04:40;;;;;;;18.83;12.20;;;;;;;;;;5014562;28;20460;-87
2023/11/20 20:07:06;;;;;;;15.88;11.43;;;;;;;;;;5014423;28;20030;-86
2023/11/20 20:09:35;;;;;;;19.40;13.00;;;;;;;;;;4996875;28;20365;-86
2023/11/20 20:12:01;;;;;;;525.13;193.27;;;;;;;;;;5014957;28;20042;-86
2023/11/20 20:14:26;;;;;;;60.92;28.48;;;;;;;;;;4997099;28;20064;-86
2023/11/20 20:16:56;;;;;;;31.27;17.45;;;;;;;;;;5014632;28;20026;-86
2023/11/20 20:19:22;;;;;;;29.60;16.30;;;;;;;;;;5014524;28;20084;-85
2023/11/20 20:21:48;;;;;;;263.77;97.70;;;;;;;;;;5014745;28;20494;-85
2023/11/20 20:24:13;;;;;;;221.25;86.32;;;;;;;;;;5014522;28;20109;-86
2023/11/20 20:26:39;;;;;;;91.20;42.75;;;;;;;;;;5014259;28;20026;-85
2023/11/20 20:29:06;;;;;;;61.15;30.10;;;;;;;;;;5014075;28;20022;-85
2023/11/20 20:31:33;;;;;;;46.40;25.38;;;;;;;;;;5014288;28;20053;-82
2023/11/20 20:33:58;;;;;;;31.52;19.35;;;;;;;;;;5014238;28;20113;-83
2023/11/20 20:36:24;;;;;;;35.60;19.13;;;;;;;;;;5014122;28;20113;-83
2023/11/20 20:38:50;;;;;;;62.30;32.15;;;;;;;;;;5014093;28;20026;-84
2023/11/20 20:41:15;;;;;;;25.98;16.33;;;;;;;;;;5013845;28;20021;-82
2023/11/20 20:43:41;;;;;;;22.60;14.80;;;;;;;;;;5014008;28;20072;-82
2023/11/20 20:46:07;;;;;;;23.35;15.30;;;;;;;;;;5013963;28;20495;-82
2023/11/20 20:48:33;;;;;;;22.50;15.38;;;;;;;;;;4996478;28;20449;-82
2023/11/20 20:50:58;;;;;;;23.50;15.27;;;;;;;;;;5013992;28;20088;-82
2023/11/20 20:53:24;;;;;;;19.63;13.90;;;;;;;;;;5013921;28;20057;-82
2023/11/20 20:55:49;;;;;;;22.30;13.65;;;;;;;;;;5014194;28;20133;-82
2023/11/20 20:58:15;;;;;;;19.25;13.38;;;;;;;;;;5013857;28;20029;-85
2023/11/20 21:00:40;;;;;;;26.30;17.17;;;;;;;;;;5013847;28;20385;-85
2023/11/20 21:03:07;;;;;;;29.27;20.25;;;;;;;;;;5014123;28;20026;-84
2023/11/20 21:05:33;;;;;;;33.58;21.55;;;;;;;;;;5014042;28;20535;-84
2023/11/20 21:07:59;;;;;;;28.75;18.77;;;;;;;;;;5013824;28;20026;-84
2023/11/20 21:10:25;;;;;;;23.92;16.52;;;;;;;;;;5014083;28;20377;-84
2023/11/20 21:12:51;;;;;;;22.38;14.95;;;;;;;;;;5013021;28;20060;-85
2023/11/20 21:15:17;;;;;;;25.13;15.85;;;;;;;;;;5013913;28;20030;-85
2023/11/20 21:17:44;;;;;;;16.92;13.52;;;;;;;;;;5013445;28;20030;-86
2023/11/20 21:20:10;;;;;;;19.20;13.18;;;;;;;;;;4997512;28;20030;-85
2023/11/20 21:22:36;;;;;;;21.50;14.82;;;;;;;;;;5017415;28;20025;-84
2023/11/20 21:25:03;;;;;;;29.55;17.75;;;;;;;;;;5017757;28;20033;-85
2023/11/20 21:27:29;;;;;;;22.92;16.50;;;;;;;;;;5017553;28;20026;-85
2023/11/20 21:29:54;;;;;;;23.00;15.60;;;;;;;;;;5017477;28;20033;-87
2023/11/20 21:32:19;;;;;;;25.77;17.55;;;;;;;;;;5017622;28;20025;-87
2023/11/20 21:34:45;;;;;;;23.42;15.70;;;;;;;;;;5017487;28;20029;-87
2023/11/20 21:37:10;;;;;;;21.35;13.60;;;;;;;;;;5017409;28;20462;-87
2023/11/20 21:39:36;;;;;;;23.50;14.68;;;;;;;;;;4997703;28;20014;-87
2023/11/20 21:42:02;;;;;;;23.27;14.43;;;;;;;;;;5017047;28;20026;-87
2023/11/20 21:44:27;;;;;;;25.90;14.23;;;;;;;;;;5016483;28;20022;-87
2023/11/20 21:46:54;;;;;;;20.73;14.63;;;;;;;;;;4999361;28;20496;-87
2023/11/20 21:49:19;;;;;;;22.77;15.13;;;;;;;;;;4999107;28;20483;-87
2023/11/20 21:51:45;;;;;;;21.27;14.77;;;;;;;;;;4983320;28;20029;-87
2023/11/20 21:54:10;;;;;;;19.88;14.13;;;;;;;;;;4999529;28;20026;-87
2023/11/20 21:56:39;;;;;;;19.00;13.77;;;;;;;;;;5016743;28;20033;-87
2023/11/20 21:59:05;;;;;;;20.90;13.63;;;;;;;;;;4999124;28;20021;-87
2023/11/20 22:01:31;;;;;;;20.02;12.85;;;;;;;;;;4999045;28;20026;-87
2023/11/20 22:03:56;;;;;;;20.25;13.73;;;;;;;;;;4999240;28;20057;-87
2023/11/20 22:06:22;;;;;;;16.90;12.48;;;;;;;;;;5016643;28;20491;-87
2023/11/20 22:08:49;;;;;;;21.15;13.90;;;;;;;;;;5016553;28;20100;-84
2023/11/20 22:11:17;;;;;;;18.92;12.15;;;;;;;;;;5016859;28;20025;-87
2023/11/20 22:13:43;;;;;;;17.80;12.48;;;;;;;;;;4998787;28;20054;-87
2023/11/20 22:16:09;;;;;;;18.33;11.73;;;;;;;;;;5016507;28;20057;-88
2023/11/20 22:18:44;;;;;;;17.98;13.40;;;;;;;;;;4998827;28;20022;-87
2023/11/20 22:21:10;;;;;;;17.35;13.18;;;;;;;;;;4998813;28;20053;-87
2023/11/20 22:23:36;;;;;;;16.85;12.27;;;;;;;;;;5016408;28;20490;-87
2023/11/20 22:26:04;;;;;;;16.50;12.35;;;;;;;;;;5016317;28;20026;-87
2023/11/20 22:28:30;;;;;;;17.30;11.30;;;;;;;;;;5016342;28;20030;-87
2023/11/20 22:30:56;;;;;;;17.23;12.98;;;;;;;;;;4998045;28;20041;-87
2023/11/20 22:33:23;;;;;;;14.48;11.52;;;;;;;;;;4998439;28;20117;-88
2023/11/20 22:35:48;;;;;;;16.58;11.40;;;;;;;;;;4979501;28;20026;-86
2023/11/20 22:38:14;;;;;;;17.77;12.68;;;;;;;;;;4996860;28;20030;-86
2023/11/20 22:40:40;;;;;;;16.80;12.70;;;;;;;;;;4997189;28;20026;-86
2023/11/20 22:43:08;;;;;;;17.45;11.80;;;;;;;;;;4979577;28;20527;-86
2023/11/20 22:45:35;;;;;;;16.55;11.88;;;;;;;;;;4997257;28;20037;-88
2023/11/20 22:48:02;;;;;;;24.27;15.57;;;;;;;;;;4997269;28;20022;-87
2023/11/20 22:50:28;;;;;;;17.90;12.23;;;;;;;;;;4979491;28;20037;-87
2023/11/20 22:52:53;;;;;;;23.10;15.43;;;;;;;;;;4979446;28;20038;-88
2023/11/20 22:55:19;;;;;;;26.33;16.83;;;;;;;;;;4995617;28;20053;-88
2023/11/20 22:57:44;;;;;;;25.17;16.30;;;;;;;;;;4997220;28;20018;-88
2023/11/20 23:00:15;;;;;;;26.60;15.45;;;;;;;;;;4996550;28;20029;-88
2023/11/20 23:02:41;;;;;;;23.77;15.57;;;;;;;;;;4979111;28;20066;-88
2023/11/20 23:05:07;;;;;;;21.98;14.05;;;;;;;;;;4996726;28;20030;-88
